Time;durP1;ratioP1;P1;durP2;ratioP2;P2;SDS_P1;SDS_P2;PMS_P1;PMS_P2;Temp;Humidity;BMP_temperature;BMP_pressure;BME280_temperature;BME280_humidity;BME280_pressure;Samples;Min_cycle;Max_cycle;Signal;HPM_P1;HPM_P2
2023/05/21 00:01:24;;;;;;;6.23;5.63;;;;;;;;;;5022487;28;20215;-29
2023/05/21 00:03:52;;;;;;;8.87;6.30;;;;;;;;;;5035291;28;20285;-28
2023/05/21 00:06:19;;;;;;;6.37;5.73;;;;;;;;;;5035025;28;20700;-28
2023/05/21 00:08:46;;;;;;;6.47;5.80;;;;;;;;;;5033324;28;20418;-27
2023/05/21 00:11:13;;;;;;;6.60;5.90;;;;;;;;;;5025979;28;20228;-27
2023/05/21 00:13:40;;;;;;;7.13;5.63;;;;;;;;;;5034864;28;20206;-28
2023/05/21 00:16:09;;;;;;;5.93;5.30;;;;;;;;;;5020400;28;20229;-29
2023/05/21 00:18:38;;;;;;;6.20;5.60;;;;;;;;;;5032401;28;20222;-28
2023/05/21 00:21:05;;;;;;;12.87;6.13;;;;;;;;;;5033185;28;20210;-31
2023/05/21 00:23:32;;;;;;;7.73;5.70;;;;;;;;;;5032752;28;20237;-30
2023/05/21 00:26:00;;;;;;;9.00;5.43;;;;;;;;;;5024453;28;20252;-30
2023/05/21 00:28:27;;;;;;;6.50;5.80;;;;;;;;;;5026449;28;20210;-27
2023/05/21 00:30:54;;;;;;;8.17;6.13;;;;;;;;;;5027315;28;20207;-28
2023/05/21 00:33:25;;;;;;;6.80;6.10;;;;;;;;;;5031613;28;20207;-28
2023/05/21 00:35:52;;;;;;;6.87;6.10;;;;;;;;;;5032615;28;20234;-26
2023/05/21 00:38:19;;;;;;;7.53;5.90;;;;;;;;;;5032620;28;20226;-28
2023/05/21 00:40:46;;;;;;;6.83;5.60;;;;;;;;;;5022122;28;20209;-25
2023/05/21 00:43:13;;;;;;;6.40;5.70;;;;;;;;;;5031980;28;20214;-30
2023/05/21 00:45:43;;;;;;;6.83;6.13;;;;;;;;;;5028612;28;20234;-31
2023/05/21 00:48:10;;;;;;;8.00;5.80;;;;;;;;;;5026607;28;20293;-29
2023/05/21 00:50:39;;;;;;;6.13;5.33;;;;;;;;;;5032047;28;20213;-30
2023/05/21 00:53:08;;;;;;;7.23;6.53;;;;;;;;;;5032378;28;20669;-27
2023/05/21 00:55:35;;;;;;;7.93;5.90;;;;;;;;;;5023780;28;20345;-28
2023/05/21 00:58:03;;;;;;;6.10;5.30;;;;;;;;;;5030676;28;20214;-30
2023/05/21 01:00:33;;;;;;;7.47;5.63;;;;;;;;;;5028357;28;20221;-28
2023/05/21 01:03:00;;;;;;;9.17;5.93;;;;;;;;;;5027717;28;20695;-30
2023/05/21 01:05:27;;;;;;;6.97;5.77;;;;;;;;;;5029975;28;20237;-30
2023/05/21 01:07:56;;;;;;;8.13;6.30;;;;;;;;;;5032562;28;20283;-26
2023/05/21 01:10:24;;;;;;;6.73;5.83;;;;;;;;;;5025650;28;20548;-30
2023/05/21 01:12:51;;;;;;;8.03;5.97;;;;;;;;;;5031190;28;20228;-27
2023/05/21 01:15:19;;;;;;;6.70;6.00;;;;;;;;;;5031435;28;20229;-30
2023/05/21 01:17:47;;;;;;;7.33;6.20;;;;;;;;;;5024919;28;20214;-27
2023/05/21 01:20:17;;;;;;;6.70;6.03;;;;;;;;;;5031042;28;20226;-27
2023/05/21 01:22:49;;;;;;;6.13;5.53;;;;;;;;;;5031595;28;20281;-29
2023/05/21 01:25:17;;;;;;;8.73;6.17;;;;;;;;;;5026050;28;20238;-28
2023/05/21 01:27:44;;;;;;;7.00;6.30;;;;;;;;;;5023360;28;20214;-27
2023/05/21 01:30:12;;;;;;;6.73;5.43;;;;;;;;;;5026790;28;20199;-32
2023/05/21 01:32:40;;;;;;;8.70;6.27;;;;;;;;;;5021404;28;20211;-29
2023/05/21 01:35:08;;;;;;;6.17;5.43;;;;;;;;;;5030873;28;20211;-27
2023/05/21 01:37:38;;;;;;;8.63;6.37;;;;;;;;;;5031652;28;20225;-28
2023/05/21 01:40:11;;;;;;;6.93;6.20;;;;;;;;;;5027772;28;20229;-29
2023/05/21 01:42:39;;;;;;;6.83;6.00;;;;;;;;;;5028186;28;20298;-38
2023/05/21 01:45:07;;;;;;;7.10;6.07;;;;;;;;;;5029348;28;20203;-27
2023/05/21 01:47:36;;;;;;;7.43;6.40;;;;;;;;;;5028743;28;20205;-30
2023/05/21 01:50:04;;;;;;;7.40;6.37;;;;;;;;;;5032907;28;20199;-27
2023/05/21 01:52:31;;;;;;;7.20;5.97;;;;;;;;;;5026009;28;20261;-27
2023/05/21 01:54:59;;;;;;;6.73;5.80;;;;;;;;;;5029865;28;20208;-26
2023/05/21 01:57:27;;;;;;;8.53;6.27;;;;;;;;;;5025033;28;20210;-28
2023/05/21 01:59:55;;;;;;;9.73;5.87;;;;;;;;;;5027519;28;20219;-29
2023/05/21 02:02:22;;;;;;;8.17;6.10;;;;;;;;;;5023314;28;20207;-30
2023/05/21 02:04:49;;;;;;;7.67;6.30;;;;;;;;;;5028753;28;20202;-29
2023/05/21 02:07:17;;;;;;;7.63;6.53;;;;;;;;;;5029891;28;20238;-31
2023/05/21 02:09:44;;;;;;;7.07;6.37;;;;;;;;;;5026233;28;20203;-27
2023/05/21 02:12:11;;;;;;;11.60;6.10;;;;;;;;;;5026723;28;20202;-29
2023/05/21 02:14:40;;;;;;;7.60;6.33;;;;;;;;;;5029867;28;20218;-29
2023/05/21 02:17:07;;;;;;;9.30;6.67;;;;;;;;;;5019213;28;20226;-28
2023/05/21 02:19:35;;;;;;;8.17;6.47;;;;;;;;;;5029601;28;20215;-28
2023/05/21 02:22:02;;;;;;;7.27;6.30;;;;;;;;;;5029011;28;20235;-28
2023/05/21 02:24:30;;;;;;;6.50;5.83;;;;;;;;;;5025238;28;20207;-30
2023/05/21 02:26:57;;;;;;;9.53;6.27;;;;;;;;;;5024614;28;20246;-30
2023/05/21 02:29:24;;;;;;;6.87;6.17;;;;;;;;;;5030059;28;20198;-29
2023/05/21 02:31:52;;;;;;;8.67;6.73;;;;;;;;;;5018045;28;20202;-26
2023/05/21 02:34:20;;;;;;;6.40;5.80;;;;;;;;;;5027057;28;20211;-30
2023/05/21 02:36:51;;;;;;;8.40;6.17;;;;;;;;;;5030323;28;20261;-29
2023/05/21 02:39:18;;;;;;;7.97;5.77;;;;;;;;;;5019039;28;20296;-31
2023/05/21 02:41:45;;;;;;;7.40;6.23;;;;;;;;;;5029741;28;20217;-30
2023/05/21 02:44:12;;;;;;;6.57;5.90;;;;;;;;;;5029399;28;20203;-26
2023/05/21 02:46:40;;;;;;;7.53;6.83;;;;;;;;;;5024068;28;20241;-28
2023/05/21 02:49:08;;;;;;;10.83;6.57;;;;;;;;;;5027740;28;20207;-28
2023/05/21 02:51:35;;;;;;;8.57;6.27;;;;;;;;;;5030071;28;20570;-30
2023/05/21 02:54:02;;;;;;;7.60;6.20;;;;;;;;;;5023561;28;20210;-27
2023/05/21 02:56:29;;;;;;;6.23;5.63;;;;;;;;;;5024282;28;20242;-28
2023/05/21 02:58:56;;;;;;;7.13;6.30;;;;;;;;;;5029536;28;20229;-30
2023/05/21 03:01:23;;;;;;;7.80;6.53;;;;;;;;;;5019889;28;20418;-26
2023/05/21 03:03:51;;;;;;;7.00;6.23;;;;;;;;;;5027116;28;20207;-26
2023/05/21 03:06:19;;;;;;;6.50;5.90;;;;;;;;;;5029329;28;20222;-30
2023/05/21 03:08:46;;;;;;;7.73;6.50;;;;;;;;;;5029616;28;20205;-30
2023/05/21 03:11:13;;;;;;;7.03;6.33;;;;;;;;;;5015636;28;20211;-29
2023/05/21 03:13:41;;;;;;;7.37;6.57;;;;;;;;;;5022517;28;20206;-26
2023/05/21 03:16:08;;;;;;;6.87;5.90;;;;;;;;;;5023610;28;20284;-29
2023/05/21 03:18:35;;;;;;;6.90;6.17;;;;;;;;;;5026897;28;20202;-29
2023/05/21 03:21:03;;;;;;;9.07;6.83;;;;;;;;;;5029539;28;20206;-29
2023/05/21 03:23:31;;;;;;;7.97;6.43;;;;;;;;;;5024627;28;20317;-31
2023/05/21 03:25:58;;;;;;;8.47;7.27;;;;;;;;;;5022210;28;20277;-29
2023/05/21 03:28:26;;;;;;;8.97;7.00;;;;;;;;;;5028948;28;20198;-29
2023/05/21 03:30:53;;;;;;;7.33;6.57;;;;;;;;;;5025312;28;20202;-29
2023/05/21 03:33:20;;;;;;;8.47;6.83;;;;;;;;;;5026363;28;20214;-27
2023/05/21 03:35:47;;;;;;;7.73;6.47;;;;;;;;;;5028424;28;20226;-29
2023/05/21 03:38:14;;;;;;;9.17;7.10;;;;;;;;;;5025215;28;20202;-28
2023/05/21 03:40:43;;;;;;;6.37;5.77;;;;;;;;;;5022456;28;20233;-30
2023/05/21 03:43:10;;;;;;;7.50;6.67;;;;;;;;;;5028188;28;20217;-31
2023/05/21 03:45:37;;;;;;;7.67;6.73;;;;;;;;;;5017335;28;20226;-26
2023/05/21 03:48:05;;;;;;;10.03;6.67;;;;;;;;;;5026363;28;20233;-30
2023/05/21 03:50:32;;;;;;;8.00;6.77;;;;;;;;;;5028846;28;20301;-29
2023/05/21 03:52:59;;;;;;;7.60;6.70;;;;;;;;;;5029388;28;20210;-29
2023/05/21 03:55:26;;;;;;;8.07;7.27;;;;;;;;;;5009940;28;20222;-29
2023/05/21 03:57:54;;;;;;;9.80;6.57;;;;;;;;;;5025429;28;20206;-27
2023/05/21 04:00:22;;;;;;;7.77;6.97;;;;;;;;;;5028309;28;20230;-27
2023/05/21 04:02:49;;;;;;;7.40;6.57;;;;;;;;;;5024863;28;20202;-29
2023/05/21 04:05:16;;;;;;;7.43;6.07;;;;;;;;;;5031150;28;20692;-29
2023/05/21 04:07:45;;;;;;;8.53;7.00;;;;;;;;;;5031571;28;20213;-28
2023/05/21 04:10:12;;;;;;;7.63;6.80;;;;;;;;;;5026182;28;20687;-29
2023/05/21 04:12:39;;;;;;;8.83;6.47;;;;;;;;;;5028900;28;20202;-39
2023/05/21 04:15:08;;;;;;;11.23;6.50;;;;;;;;;;5026281;28;20199;-31
2023/05/21 04:17:35;;;;;;;7.93;6.37;;;;;;;;;;5023590;28;20736;-35
2023/05/21 04:20:03;;;;;;;7.43;6.73;;;;;;;;;;5031059;28;20715;-35
2023/05/21 04:22:31;;;;;;;9.03;6.70;;;;;;;;;;5029499;28;20207;-41
2023/05/21 04:24:58;;;;;;;7.23;6.53;;;;;;;;;;5024710;28;20230;-34
2023/05/21 04:27:25;;;;;;;7.37;6.60;;;;;;;;;;5033196;28;20221;-33
2023/05/21 04:29:53;;;;;;;7.60;5.93;;;;;;;;;;5026661;28;20202;-33
2023/05/21 04:32:21;;;;;;;6.80;5.80;;;;;;;;;;5029339;28;20238;-37
2023/05/21 04:34:49;;;;;;;6.97;6.33;;;;;;;;;;5034570;28;20210;-33
2023/05/21 04:37:17;;;;;;;7.43;6.70;;;;;;;;;;5034821;28;20715;-32
2023/05/21 04:39:44;;;;;;;8.30;6.50;;;;;;;;;;5029522;28;20211;-39
2023/05/21 04:42:11;;;;;;;8.40;6.90;;;;;;;;;;5034337;28;20210;-34
2023/05/21 04:57:31;;;;;;;7.40;5.87;;;;;;;;;;5062066;28;20225;-31
2023/05/21 04:59:58;;;;;;;6.93;6.20;;;;;;;;;;5070753;28;20221;-32
2023/05/21 05:02:25;;;;;;;7.70;6.30;;;;;;;;;;5061907;28;20206;-30
2023/05/21 05:04:52;;;;;;;8.43;7.53;;;;;;;;;;5058039;28;20201;-30
2023/05/21 05:07:19;;;;;;;7.50;6.63;;;;;;;;;;5052856;28;20206;-34
2023/05/21 05:09:46;;;;;;;10.00;7.23;;;;;;;;;;5046417;28;20308;-32
2023/05/21 05:12:13;;;;;;;8.03;6.57;;;;;;;;;;5044469;28;20217;-35
2023/05/21 05:14:42;;;;;;;7.07;6.33;;;;;;;;;;5040860;28;20211;-32
2023/05/21 05:17:09;;;;;;;9.07;6.50;;;;;;;;;;5043431;28;20226;-35
2023/05/21 05:19:36;;;;;;;8.37;7.07;;;;;;;;;;5043976;28;20320;-31
2023/05/21 05:22:03;;;;;;;9.17;7.63;;;;;;;;;;5051257;28;20209;-32
2023/05/21 05:24:30;;;;;;;7.83;7.03;;;;;;;;;;5044421;28;20202;-32
2023/05/21 05:26:57;;;;;;;8.67;7.13;;;;;;;;;;5039767;28;20219;-35
2023/05/21 05:29:25;;;;;;;8.43;7.10;;;;;;;;;;5049265;28;20206;-34
2023/05/21 05:31:53;;;;;;;8.37;7.17;;;;;;;;;;5041300;28;20207;-31
2023/05/21 05:34:20;;;;;;;7.50;6.33;;;;;;;;;;5048204;28;20206;-35
2023/05/21 05:36:47;;;;;;;10.60;7.40;;;;;;;;;;5051193;28;20241;-32
2023/05/21 05:39:14;;;;;;;8.37;6.90;;;;;;;;;;5041567;28;20207;-34
2023/05/21 05:41:41;;;;;;;7.40;6.70;;;;;;;;;;5035982;28;20201;-31
2023/05/21 05:44:08;;;;;;;9.17;6.90;;;;;;;;;;5050437;28;20221;-32
2023/05/21 05:46:36;;;;;;;9.97;7.33;;;;;;;;;;5040566;28;20411;-31
2023/05/21 05:49:04;;;;;;;9.70;7.43;;;;;;;;;;5032318;28;20198;-35
2023/05/21 05:51:31;;;;;;;7.80;7.10;;;;;;;;;;5031080;28;20198;-32
2023/05/21 05:53:58;;;;;;;8.83;7.77;;;;;;;;;;5036904;28;20214;-32
2023/05/21 05:56:25;;;;;;;10.20;7.10;;;;;;;;;;5041491;28;20249;-31
2023/05/21 05:58:52;;;;;;;10.33;7.73;;;;;;;;;;5045113;28;20202;-33
2023/05/21 06:01:23;;;;;;;8.30;7.27;;;;;;;;;;5038220;28;20222;-31
2023/05/21 06:03:50;;;;;;;8.53;7.47;;;;;;;;;;5039304;28;20210;-32
2023/05/21 06:06:19;;;;;;;10.10;6.50;;;;;;;;;;5033417;28;20218;-32
2023/05/21 06:08:46;;;;;;;9.77;7.63;;;;;;;;;;5034368;28;20207;-34
2023/05/21 06:11:15;;;;;;;8.73;7.83;;;;;;;;;;5044928;28;20202;-29
2023/05/21 06:13:42;;;;;;;10.23;7.90;;;;;;;;;;5031041;28;20207;-34
2023/05/21 06:16:10;;;;;;;10.03;8.00;;;;;;;;;;5037366;28;20236;-33
2023/05/21 06:18:37;;;;;;;8.90;7.97;;;;;;;;;;5042719;28;20197;-30
2023/05/21 06:21:04;;;;;;;9.50;8.30;;;;;;;;;;5049564;28;20214;-30
2023/05/21 06:23:35;;;;;;;10.90;8.17;;;;;;;;;;5039259;28;20198;-32
2023/05/21 06:26:02;;;;;;;8.97;7.90;;;;;;;;;;5041369;28;20253;-30
2023/05/21 06:28:29;;;;;;;10.67;8.27;;;;;;;;;;5044309;28;20232;-33
2023/05/21 06:30:57;;;;;;;8.53;7.63;;;;;;;;;;5038679;28;20210;-31
2023/05/21 06:33:24;;;;;;;9.23;8.33;;;;;;;;;;5042013;28;20214;-33
2023/05/21 06:35:51;;;;;;;9.90;7.93;;;;;;;;;;5049745;28;20222;-34
2023/05/21 06:38:18;;;;;;;11.00;8.87;;;;;;;;;;5045551;28;20209;-32
2023/05/21 06:40:47;;;;;;;9.57;7.83;;;;;;;;;;5036540;28;20218;-33
2023/05/21 06:43:15;;;;;;;10.53;8.03;;;;;;;;;;5041411;28;20209;-34
2023/05/21 06:45:42;;;;;;;8.83;7.90;;;;;;;;;;5031734;28;20222;-32
2023/05/21 06:48:11;;;;;;;11.20;8.40;;;;;;;;;;5031016;28;20198;-30
2023/05/21 06:50:38;;;;;;;9.47;8.17;;;;;;;;;;5034680;28;20202;-33
2023/05/21 06:53:05;;;;;;;14.67;8.77;;;;;;;;;;5041472;28;20203;-30
2023/05/21 06:55:32;;;;;;;10.17;8.90;;;;;;;;;;5031147;28;20234;-30
2023/05/21 06:58:01;;;;;;;9.50;8.37;;;;;;;;;;5049246;28;20213;-31
2023/05/21 07:00:28;;;;;;;12.43;9.00;;;;;;;;;;5045237;28;20227;-32
2023/05/21 07:02:56;;;;;;;10.30;8.60;;;;;;;;;;5039835;28;20201;-31
2023/05/21 07:05:23;;;;;;;8.80;7.53;;;;;;;;;;5039590;28;20220;-30
2023/05/21 07:07:50;;;;;;;9.47;7.80;;;;;;;;;;5030403;28;20672;-33
2023/05/21 07:10:17;;;;;;;10.47;8.83;;;;;;;;;;5028428;28;20214;-32
2023/05/21 07:12:44;;;;;;;12.80;8.00;;;;;;;;;;5040333;28;20200;-33
2023/05/21 07:15:13;;;;;;;10.37;8.37;;;;;;;;;;5039996;28;20496;-33
2023/05/21 07:17:40;;;;;;;8.67;7.70;;;;;;;;;;5034980;28;20223;-31
2023/05/21 07:20:08;;;;;;;10.60;8.20;;;;;;;;;;5049679;28;20226;-33
2023/05/21 07:22:37;;;;;;;8.43;7.50;;;;;;;;;;5049652;28;20254;-32
2023/05/21 07:25:05;;;;;;;8.37;7.57;;;;;;;;;;5036090;28;20208;-33
2023/05/21 07:27:32;;;;;;;8.70;7.80;;;;;;;;;;5039356;28;20211;-32
2023/05/21 07:29:59;;;;;;;9.63;7.43;;;;;;;;;;5043586;28;20200;-31
2023/05/21 07:32:27;;;;;;;8.93;6.73;;;;;;;;;;5038787;28;20209;-31
2023/05/21 07:34:55;;;;;;;9.47;7.60;;;;;;;;;;5042687;28;20270;-30
2023/05/21 07:37:22;;;;;;;9.17;7.63;;;;;;;;;;5031220;28;20228;-32
2023/05/21 07:39:49;;;;;;;7.90;6.80;;;;;;;;;;5029852;28;20213;-32
2023/05/21 07:42:16;;;;;;;7.33;6.63;;;;;;;;;;5032909;28;20202;-32
2023/05/21 07:44:43;;;;;;;7.93;6.80;;;;;;;;;;5040531;28;20289;-30
2023/05/21 07:47:10;;;;;;;7.77;6.97;;;;;;;;;;5037280;28;20225;-32
2023/05/21 07:49:39;;;;;;;8.43;7.27;;;;;;;;;;5041183;28;20320;-32
2023/05/21 07:52:06;;;;;;;7.67;6.87;;;;;;;;;;5050341;28;20293;-32
2023/05/21 07:54:34;;;;;;;11.20;7.47;;;;;;;;;;5045349;28;20562;-34
2023/05/21 07:57:02;;;;;;;7.20;6.50;;;;;;;;;;5042363;28;20324;-31
2023/05/21 07:59:29;;;;;;;7.47;6.77;;;;;;;;;;5046220;28;20251;-30
2023/05/21 08:01:56;;;;;;;7.93;6.53;;;;;;;;;;5038504;28;20579;-32
2023/05/21 08:04:23;;;;;;;10.98;7.28;;;;;;;;;;5036495;28;20204;-30
2023/05/21 08:06:52;;;;;;;9.37;7.23;;;;;;;;;;5053806;28;20236;-32
2023/05/21 08:09:19;;;;;;;7.40;6.70;;;;;;;;;;5050113;28;20210;-32
2023/05/21 08:11:46;;;;;;;8.17;6.57;;;;;;;;;;5045311;28;20201;-33
2023/05/21 08:14:13;;;;;;;7.27;6.57;;;;;;;;;;5054846;28;20222;-34
2023/05/21 08:16:41;;;;;;;7.10;6.13;;;;;;;;;;5042421;28;20222;-31
2023/05/21 08:19:08;;;;;;;6.88;6.05;;;;;;;;;;5051577;28;20213;-34
2023/05/21 08:21:35;;;;;;;7.17;6.47;;;;;;;;;;5052955;28;20213;-32
2023/05/21 08:24:04;;;;;;;7.13;6.40;;;;;;;;;;5052457;28;20232;-33
2023/05/21 08:26:31;;;;;;;7.10;6.20;;;;;;;;;;5044303;28;20287;-33
2023/05/21 08:28:58;;;;;;;9.37;5.90;;;;;;;;;;5041212;28;20216;-32
2023/05/21 08:31:25;;;;;;;8.20;6.43;;;;;;;;;;5034495;28;20202;-31
2023/05/21 08:33:52;;;;;;;6.53;5.93;;;;;;;;;;5037561;28;20224;-32
2023/05/21 08:36:20;;;;;;;6.67;6.00;;;;;;;;;;5034854;28;20232;-30
2023/05/21 08:38:47;;;;;;;6.80;5.83;;;;;;;;;;5031900;28;20217;-31
2023/05/21 08:41:17;;;;;;;7.10;6.03;;;;;;;;;;5037908;28;20222;-31
2023/05/21 08:43:46;;;;;;;7.37;6.10;;;;;;;;;;5040379;28;20201;-32
2023/05/21 08:46:14;;;;;;;7.27;6.07;;;;;;;;;;5031152;28;20231;-30
2023/05/21 08:48:41;;;;;;;7.23;5.63;;;;;;;;;;5045999;28;20210;-30
2023/05/21 08:51:08;;;;;;;9.33;6.20;;;;;;;;;;5032203;28;20570;-32
2023/05/21 08:53:35;;;;;;;6.83;6.20;;;;;;;;;;5032207;28;20221;-32
2023/05/21 08:56:02;;;;;;;12.00;6.23;;;;;;;;;;5036422;28;20230;-32
2023/05/21 08:58:33;;;;;;;7.82;6.35;;;;;;;;;;5049243;28;20208;-31
2023/05/21 09:01:00;;;;;;;7.43;6.65;;;;;;;;;;5038043;28;20240;-31
2023/05/21 09:03:28;;;;;;;8.00;6.50;;;;;;;;;;5042926;28;20206;-31
2023/05/21 09:05:55;;;;;;;8.38;6.18;;;;;;;;;;5046147;28;20225;-32
2023/05/21 09:08:25;;;;;;;7.07;6.32;;;;;;;;;;5046144;28;20203;-31
2023/05/21 09:10:52;;;;;;;6.63;5.75;;;;;;;;;;5039525;28;20288;-33
2023/05/21 09:13:20;;;;;;;6.18;5.32;;;;;;;;;;5033804;28;20209;-33
2023/05/21 09:15:50;;;;;;;5.70;5.20;;;;;;;;;;5041061;28;20230;-34
2023/05/21 09:18:17;;;;;;;6.40;5.45;;;;;;;;;;5044410;28;20281;-33
2023/05/21 09:20:45;;;;;;;6.40;5.78;;;;;;;;;;5033809;28;20214;-31
2023/05/21 09:23:15;;;;;;;7.32;5.72;;;;;;;;;;5032918;28;20210;-31
2023/05/21 09:25:45;;;;;;;8.90;5.63;;;;;;;;;;5038186;28;20241;-30
2023/05/21 09:28:13;;;;;;;6.50;5.50;;;;;;;;;;5049047;28;20224;-32
2023/05/21 09:30:44;;;;;;;6.07;5.47;;;;;;;;;;5042216;28;20223;-31
2023/05/21 09:33:13;;;;;;;6.40;5.30;;;;;;;;;;5042620;28;20256;-33
2023/05/21 09:35:46;;;;;;;6.28;5.68;;;;;;;;;;5038970;28;20229;-33
2023/05/21 09:38:13;;;;;;;5.80;4.95;;;;;;;;;;5031805;28;20249;-33
2023/05/21 09:40:44;;;;;;;6.35;5.38;;;;;;;;;;5034475;28;20206;-34
2023/05/21 09:43:13;;;;;;;5.88;5.28;;;;;;;;;;5032712;28;20267;-29
2023/05/21 09:45:50;;;;;;;5.63;5.05;;;;;;;;;;5045049;28;20229;-34
2023/05/21 09:48:32;;;;;;;5.78;5.20;;;;;;;;;;5039488;28;20205;-32
2023/05/21 09:51:07;;;;;;;6.10;4.97;;;;;;;;;;5045183;28;20205;-35
2023/05/21 09:53:34;;;;;;;5.30;4.80;;;;;;;;;;5043914;28;20209;-34
2023/05/21 09:56:02;;;;;;;5.70;5.07;;;;;;;;;;5050602;28;20260;-33
2023/05/21 09:58:29;;;;;;;7.05;5.70;;;;;;;;;;5036508;28;20275;-30
2023/05/21 10:00:57;;;;;;;6.63;5.00;;;;;;;;;;5037172;28;20224;-32
2023/05/21 10:03:27;;;;;;;5.55;4.90;;;;;;;;;;5035508;28;20210;-31
2023/05/21 10:05:54;;;;;;;6.03;5.10;;;;;;;;;;5038924;28;20222;-33
2023/05/21 10:08:23;;;;;;;6.70;4.75;;;;;;;;;;5032396;28;20218;-36
2023/05/21 10:10:50;;;;;;;7.75;5.45;;;;;;;;;;5040209;28;20213;-32
2023/05/21 10:13:22;;;;;;;6.28;5.53;;;;;;;;;;5048779;28;20225;-32
2023/05/21 10:15:53;;;;;;;5.20;4.57;;;;;;;;;;5028050;28;20225;-33
2023/05/21 10:18:21;;;;;;;6.15;5.07;;;;;;;;;;5038442;28;20213;-31
2023/05/21 10:20:50;;;;;;;6.00;5.28;;;;;;;;;;5030131;28;20211;-31
2023/05/21 10:23:17;;;;;;;6.05;5.35;;;;;;;;;;5030948;28;20295;-31
2023/05/21 10:25:46;;;;;;;5.65;5.05;;;;;;;;;;5042848;28;20229;-35
2023/05/21 10:28:16;;;;;;;6.85;4.78;;;;;;;;;;5033743;28;20209;-33
2023/05/21 10:30:43;;;;;;;6.20;5.60;;;;;;;;;;5029570;28;20206;-34
2023/05/21 10:33:12;;;;;;;5.80;4.90;;;;;;;;;;5031992;28;20206;-31
2023/05/21 10:35:40;;;;;;;6.43;5.18;;;;;;;;;;5042289;28;20256;-33
2023/05/21 10:38:09;;;;;;;5.57;5.07;;;;;;;;;;5050214;28;20259;-34
2023/05/21 10:40:37;;;;;;;6.35;5.25;;;;;;;;;;5036270;28;20203;-31
2023/05/21 10:43:12;;;;;;;8.98;5.10;;;;;;;;;;5031819;28;20218;-31
2023/05/21 10:45:48;;;;;;;5.85;4.65;;;;;;;;;;5033647;28;20229;-31
2023/05/21 10:48:32;;;;;;;7.70;4.80;;;;;;;;;;5047278;28;20229;-34
2023/05/21 10:51:27;;;;;;;6.47;5.75;;;;;;;;;;5481120;22;20237;-30
2023/05/21 10:54:43;;;;;;;6.85;5.15;;;;;;;;;;4986249;28;20215;-32
2023/05/21 10:57:41;;;;;;;6.47;5.43;;;;;;;;;;4994992;22;20619;-30
2023/05/21 11:03:46;;;;;;;7.97;7.22;;;;;;;;;;5089580;28;20243;-30
2023/05/21 11:06:59;;;;;;;;;;;;;;;;;;;;;
2023/05/21 11:28:08;;;;;;;;;;;;;;;;;;;;;
2023/05/21 11:31:13;;;;;;;5.95;5.43;;;;;;;;;;5079577;28;20209;-29
2023/05/21 11:43:51;;;;;;;6.63;5.57;;;;;;;;;;5026511;28;20250;-31
2023/05/21 11:56:23;;;;;;;10.05;8.80;;;;;;;;;;4917035;29;20241;-31
2023/05/21 12:02:05;;;;;;;6.78;5.75;;;;;;;;;;5011661;22;20248;-29
2023/05/21 12:08:08;;;;;;;6.55;5.95;;;;;;;;;;5011630;28;20212;-30
2023/05/21 12:11:23;;;;;;;;;;;;;;;;;;;;;
2023/05/21 12:14:16;;;;;;;;;;;;;;;;;;;;;
2023/05/21 12:20:24;;;;;;;6.70;5.55;;;;;;;;;;5076149;28;20243;-29
2023/05/21 12:29:06;;;;;;;18.75;14.57;;;;;;;;;;5013762;28;20249;-31
2023/05/21 12:35:02;;;;;;;5.47;4.95;;;;;;;;;;5010345;28;20267;-32
2023/05/21 12:44:03;;;;;;;5.45;4.78;;;;;;;;;;5024248;28;20294;-29
2023/05/21 12:47:05;;;;;;;;;;;;;;;;;;;;;
2023/05/21 12:55:56;;;;;;;4.80;4.35;;;;;;;;;;5162415;22;20231;-30
2023/05/21 13:01:36;;;;;;;;;;;;;;;;;;;;;
2023/05/21 13:04:25;;;;;;;5.35;4.85;;;;;;;;;;5080193;28;20589;-28
2023/05/21 13:07:14;;;;;;;6.03;4.88;;;;;;;;;;5060567;28;20368;-29
2023/05/21 13:22:15;;;;;;;4.97;4.32;;;;;;;;;;5008547;28;20218;-28
2023/05/21 13:33:48;;;;;;;;;;;;;;;;;;;;;
2023/05/21 13:46:16;;;;;;;;;;;;;;;;;;;;;
2023/05/21 13:49:24;;;;;;;;;;;;;;;;;;;;;
2023/05/21 13:51:59;;;;;;;6.10;4.60;;;;;;;;;;5073678;28;20216;-29
2023/05/21 13:54:36;;;;;;;5.72;4.82;;;;;;;;;;5070438;28;20229;-30
2023/05/21 14:09:05;;;;;;;5.68;4.80;;;;;;;;;;5016984;28;20249;-31
2023/05/21 14:17:56;;;;;;;5.13;4.63;;;;;;;;;;5073158;28;20203;-26
2023/05/21 14:21:06;;;;;;;6.90;4.47;;;;;;;;;;5116437;22;20208;-30
2023/05/21 14:23:41;;;;;;;7.50;4.03;;;;;;;;;;5072764;28;20229;-31
2023/05/21 14:26:32;;;;;;;5.82;4.63;;;;;;;;;;5058512;28;20233;-28
2023/05/21 14:41:41;;;;;;;;;;;;;;;;;;;;;
2023/05/21 14:51:09;;;;;;;4.95;4.53;;;;;;;;;;4983176;28;20287;-31
2023/05/21 15:06:00;;;;;;;4.25;3.85;;;;;;;;;;5029834;28;20225;-29
2023/05/21 15:08:46;;;;;;;4.53;4.13;;;;;;;;;;5080885;28;20284;-26
2023/05/21 15:26:38;;;;;;;4.93;3.95;;;;;;;;;;4972066;28;20371;-29
2023/05/21 15:29:30;;;;;;;10.65;4.43;;;;;;;;;;5042184;28;20196;-29
2023/05/21 15:32:03;;;;;;;4.25;3.85;;;;;;;;;;5063650;28;20213;-30
2023/05/21 15:34:55;;;;;;;5.25;4.20;;;;;;;;;;5072712;28;20714;-30
2023/05/21 15:37:52;;;;;;;4.57;4.18;;;;;;;;;;5082472;28;20234;-27
2023/05/21 15:43:21;;;;;;;6.75;4.20;;;;;;;;;;5069725;28;20312;-36
2023/05/21 15:46:00;;;;;;;5.30;4.40;;;;;;;;;;5072993;28;20250;-31
2023/05/21 15:55:00;;;;;;;4.88;4.38;;;;;;;;;;4934479;29;20234;-28
2023/05/21 15:57:37;;;;;;;5.55;4.05;;;;;;;;;;5001455;28;20259;-30
2023/05/21 16:00:20;;;;;;;4.63;4.15;;;;;;;;;;5074211;28;20197;-30
2023/05/21 16:05:47;;;;;;;4.22;3.83;;;;;;;;;;5014858;28;20289;-30
2023/05/21 16:08:28;;;;;;;5.80;4.47;;;;;;;;;;5080857;28;20344;-28
2023/05/21 16:17:10;;;;;;;5.65;4.30;;;;;;;;;;5754853;22;20236;-31
2023/05/21 16:19:50;;;;;;;4.15;3.75;;;;;;;;;;4997823;28;20418;-27
2023/05/21 16:25:45;;;;;;;5.90;5.30;;;;;;;;;;4960123;28;20224;-28
2023/05/21 16:28:45;;;;;;;5.45;4.05;;;;;;;;;;4978385;28;20231;-31
2023/05/21 16:34:42;;;;;;;5.20;4.78;;;;;;;;;;5031301;28;20499;-31
2023/05/21 16:37:30;;;;;;;4.47;4.07;;;;;;;;;;5046226;28;20237;-31
2023/05/21 16:42:56;;;;;;;5.20;4.70;;;;;;;;;;5616866;22;20237;-30
2023/05/21 16:48:27;;;;;;;5.55;4.95;;;;;;;;;;5430910;22;20266;-39
2023/05/21 16:50:56;;;;;;;5.63;5.13;;;;;;;;;;5059027;28;20255;-43
2023/05/21 16:53:33;;;;;;;5.30;4.80;;;;;;;;;;5065449;28;20244;-40
2023/05/21 16:56:20;;;;;;;5.80;5.30;;;;;;;;;;5054069;28;20245;-36
2023/05/21 16:58:59;;;;;;;6.82;5.20;;;;;;;;;;5048605;28;20210;-38
2023/05/21 17:01:45;;;;;;;5.47;4.90;;;;;;;;;;5151709;22;20234;-40
2023/05/21 17:04:20;;;;;;;6.40;5.20;;;;;;;;;;5053593;28;20217;-39
2023/05/21 17:27:32;;;;;;;7.43;5.50;;;;;;;;;;4840358;29;20740;-28
2023/05/21 17:30:05;;;;;;;6.55;5.82;;;;;;;;;;4877402;29;20211;-29
2023/05/21 17:32:40;;;;;;;9.00;6.97;;;;;;;;;;4924524;29;20217;-31
2023/05/21 17:35:23;;;;;;;7.20;5.85;;;;;;;;;;4947434;28;20297;-28
2023/05/21 17:37:55;;;;;;;6.18;5.57;;;;;;;;;;4985383;28;20201;-29
2023/05/21 17:40:39;;;;;;;8.10;5.30;;;;;;;;;;5040351;28;20205;-29
2023/05/21 17:43:16;;;;;;;6.13;5.45;;;;;;;;;;5054687;28;20275;-28
2023/05/21 17:45:51;;;;;;;5.80;5.00;;;;;;;;;;5050985;28;20229;-29
2023/05/21 17:48:33;;;;;;;8.65;5.85;;;;;;;;;;5051609;28;20267;-30
2023/05/21 17:51:11;;;;;;;7.00;5.13;;;;;;;;;;5051402;28;20217;-32
2023/05/21 17:57:16;;;;;;;5.60;4.85;;;;;;;;;;5033305;28;20669;-27
2023/05/21 18:03:20;;;;;;;7.03;5.20;;;;;;;;;;5019712;28;20215;-31
2023/05/21 18:08:58;;;;;;;8.07;5.70;;;;;;;;;;5014125;28;20215;-30
2023/05/21 18:11:47;;;;;;;6.40;5.50;;;;;;;;;;4950459;28;20217;-39
2023/05/21 18:23:31;;;;;;;7.53;5.33;;;;;;;;;;5020634;28;20229;-30
2023/05/21 18:26:16;;;;;;;7.53;5.30;;;;;;;;;;5023439;28;20233;-25
2023/05/21 18:31:54;;;;;;;5.68;5.18;;;;;;;;;;5020845;28;20228;-28
2023/05/21 18:34:25;;;;;;;7.05;6.15;;;;;;;;;;5033061;28;20206;-30
2023/05/21 18:37:06;;;;;;;7.03;5.70;;;;;;;;;;5033790;28;20226;-31
2023/05/21 18:39:42;;;;;;;7.20;5.90;;;;;;;;;;5032919;28;20211;-28
2023/05/21 18:42:16;;;;;;;6.80;5.82;;;;;;;;;;5024984;28;20212;-28
2023/05/21 18:44:51;;;;;;;7.63;5.67;;;;;;;;;;5030921;28;20226;-30
2023/05/21 18:47:28;;;;;;;6.37;5.77;;;;;;;;;;5024707;28;20235;-32
2023/05/21 18:50:07;;;;;;;7.78;6.80;;;;;;;;;;5032976;28;20683;-32
2023/05/21 18:52:47;;;;;;;6.60;5.90;;;;;;;;;;5032119;28;20321;-32
2023/05/21 18:55:23;;;;;;;6.03;5.27;;;;;;;;;;5016514;28;20229;-32
2023/05/21 18:57:58;;;;;;;7.07;6.13;;;;;;;;;;5015398;28;20202;-31
2023/05/21 19:00:38;;;;;;;6.73;6.03;;;;;;;;;;5029913;28;20205;-28
2023/05/21 19:03:22;;;;;;;6.47;5.87;;;;;;;;;;5027620;28;20206;-30
2023/05/21 19:09:11;;;;;;;6.30;5.60;;;;;;;;;;5069250;28;20246;-30
2023/05/21 19:11:45;;;;;;;6.90;6.10;;;;;;;;;;5067721;28;20588;-28
2023/05/21 19:36:17;;;;;;;8.73;7.30;;;;;;;;;;4855663;29;20255;-29
2023/05/21 19:38:47;;;;;;;11.43;7.23;;;;;;;;;;4991543;22;20474;-29
2023/05/21 19:41:14;;;;;;;7.90;6.73;;;;;;;;;;5060346;28;20201;-29
2023/05/21 19:43:41;;;;;;;7.17;6.43;;;;;;;;;;5053297;28;20235;-25
2023/05/21 19:46:09;;;;;;;8.10;7.13;;;;;;;;;;5047909;28;20237;-27
2023/05/21 19:48:37;;;;;;;8.37;6.50;;;;;;;;;;5046370;28;20236;-28
2023/05/21 19:51:04;;;;;;;6.40;5.80;;;;;;;;;;5045245;28;20237;-27
2023/05/21 19:53:31;;;;;;;7.27;6.23;;;;;;;;;;5047930;28;20588;-29
2023/05/21 19:55:59;;;;;;;9.47;6.60;;;;;;;;;;5042025;28;20226;-28
2023/05/21 19:58:28;;;;;;;7.60;6.37;;;;;;;;;;5046334;28;20240;-30
2023/05/21 20:00:57;;;;;;;7.97;6.33;;;;;;;;;;5044573;28;20565;-28